createdAt,value
2018-09-21T00:01:31.502Z,11.57
2018-09-21T00:03:58.963Z,9.90
2018-09-21T00:06:26.358Z,8.13
2018-09-21T00:08:53.799Z,8.63
2018-09-21T00:11:21.234Z,9.50
2018-09-21T00:13:48.692Z,7.40
2018-09-21T00:16:16.067Z,8.23
2018-09-21T00:18:43.495Z,9.43
2018-09-21T00:21:10.930Z,7.53
2018-09-21T00:23:38.390Z,9.37
2018-09-21T00:26:05.815Z,6.80
2018-09-21T00:28:33.272Z,8.50
2018-09-21T00:31:00.686Z,9.13
2018-09-21T00:33:28.092Z,8.77
2018-09-21T00:35:55.527Z,8.67
2018-09-21T00:38:22.976Z,7.13
2018-09-21T00:40:50.387Z,9.37
2018-09-21T00:43:17.801Z,10.60
2018-09-21T00:45:45.229Z,9.53
2018-09-21T00:48:12.661Z,7.87
2018-09-21T00:50:40.079Z,8.27
2018-09-21T00:53:07.514Z,10.60
2018-09-21T00:55:34.939Z,9.27
2018-09-21T00:58:02.382Z,10.50
2018-09-21T01:00:29.822Z,11.50
2018-09-21T01:02:57.253Z,8.80
2018-09-21T01:05:24.681Z,14.67
2018-09-21T01:07:52.108Z,6.50
2018-09-21T01:10:19.522Z,10.30
2018-09-21T01:12:46.951Z,9.23
2018-09-21T01:15:14.375Z,9.20
2018-09-21T01:17:41.799Z,9.47
2018-09-21T01:20:09.235Z,8.00
2018-09-21T01:22:36.673Z,8.73
2018-09-21T01:25:04.095Z,6.90
2018-09-21T01:27:31.525Z,10.47
2018-09-21T01:29:58.970Z,10.70
2018-09-21T01:32:26.367Z,11.40
2018-09-21T01:34:53.808Z,8.00
2018-09-21T01:37:21.276Z,8.27
2018-09-21T01:39:48.708Z,7.23
2018-09-21T01:42:16.128Z,8.07
2018-09-21T01:44:43.555Z,7.27
2018-09-21T01:47:10.971Z,6.47
2018-09-21T01:49:38.396Z,8.50
2018-09-21T01:52:05.838Z,7.50
2018-09-21T01:54:33.253Z,9.07
2018-09-21T01:57:00.677Z,8.40
2018-09-21T01:59:28.081Z,8.63
2018-09-21T02:01:55.533Z,7.77
2018-09-21T02:04:22.946Z,5.70
2018-09-21T02:06:50.354Z,9.87
2018-09-21T02:09:17.782Z,11.03
2018-09-21T02:11:45.186Z,8.73
2018-09-21T02:14:12.614Z,10.10
2018-09-21T02:16:40.053Z,9.77
2018-09-21T02:19:07.459Z,9.67
2018-09-21T02:21:34.872Z,8.37
2018-09-21T02:24:02.284Z,10.57
2018-09-21T02:26:29.709Z,7.87
2018-09-21T02:28:57.133Z,8.60
2018-09-21T02:31:24.524Z,7.80
2018-09-21T02:33:51.962Z,9.20
2018-09-21T02:36:19.419Z,10.57
2018-09-21T02:38:46.829Z,7.57
2018-09-21T02:41:14.265Z,9.40
2018-09-21T02:43:41.652Z,15.47
2018-09-21T02:46:09.049Z,6.97
2018-09-21T02:48:36.538Z,8.80
2018-09-21T02:51:03.882Z,8.67
2018-09-21T02:53:31.322Z,9.03
2018-09-21T02:55:58.747Z,8.47
2018-09-21T02:58:26.179Z,11.43
2018-09-21T03:00:53.744Z,7.83
2018-09-21T03:03:21.021Z,8.97
2018-09-21T03:05:48.465Z,11.25
2018-09-21T03:08:16.852Z,8.40
2018-09-21T03:10:43.317Z,11.10
2018-09-21T03:13:10.754Z,8.17
2018-09-21T03:15:38.152Z,12.07
2018-09-21T03:18:05.568Z,6.67
2018-09-21T03:20:32.979Z,10.07
2018-09-21T03:23:00.414Z,9.10
2018-09-21T03:25:27.838Z,10.00
2018-09-21T03:27:55.247Z,9.47
2018-09-21T03:30:22.696Z,8.93
2018-09-21T03:32:50.131Z,6.53
2018-09-21T03:35:17.660Z,9.33
2018-09-21T03:37:45.015Z,14.93
2018-09-21T03:40:12.423Z,10.90
2018-09-21T03:42:59.566Z,10.70
2018-09-21T03:45:26.998Z,13.03
2018-09-21T03:47:54.408Z,9.10
2018-09-21T03:50:21.837Z,7.87
2018-09-21T03:52:49.230Z,7.77
2018-09-21T03:55:16.660Z,10.10
2018-09-21T03:57:44.089Z,15.27
2018-09-21T04:00:11.491Z,7.87
2018-09-21T04:02:38.902Z,8.83
2018-09-21T04:05:06.427Z,6.90
2018-09-21T04:07:33.824Z,8.90
2018-09-21T04:10:01.236Z,11.13
2018-09-21T04:12:28.663Z,8.47
2018-09-21T04:14:56.076Z,10.57
2018-09-21T04:17:23.507Z,8.53
2018-09-21T04:19:50.899Z,6.07
2018-09-21T04:22:18.300Z,7.67
2018-09-21T04:24:45.727Z,9.33
2018-09-21T04:27:13.174Z,8.73
2018-09-21T04:29:40.595Z,8.67
2018-09-21T04:32:08.025Z,8.53
2018-09-21T04:34:35.424Z,9.13
2018-09-21T04:37:02.883Z,7.87
2018-09-21T04:39:30.299Z,7.30
2018-09-21T04:41:57.706Z,7.03
2018-09-21T04:44:25.142Z,9.30
2018-09-21T04:46:52.557Z,11.50
2018-09-21T04:49:19.990Z,9.90
2018-09-21T04:51:47.410Z,5.93
2018-09-21T04:54:14.844Z,11.47
2018-09-21T04:56:42.247Z,10.47
2018-09-21T04:59:09.687Z,7.23
2018-09-21T05:01:37.091Z,15.60
2018-09-21T05:04:04.518Z,7.53
2018-09-21T05:06:31.927Z,6.87
2018-09-21T05:08:59.360Z,9.97
2018-09-21T05:11:26.772Z,10.57
2018-09-21T05:13:54.238Z,9.30
2018-09-21T05:16:21.615Z,12.07
2018-09-21T05:18:49.022Z,12.10
2018-09-21T05:21:16.444Z,8.13
2018-09-21T05:23:43.875Z,8.23
2018-09-21T05:26:11.343Z,15.90
2018-09-21T05:28:38.709Z,8.50
2018-09-21T05:31:06.152Z,10.23
2018-09-21T05:33:33.560Z,9.73
2018-09-21T05:36:00.990Z,10.03
2018-09-21T05:38:28.404Z,10.00
2018-09-21T05:40:55.832Z,11.80
2018-09-21T05:43:23.266Z,9.33
2018-09-21T05:45:50.710Z,12.23
2018-09-21T05:48:18.156Z,10.20
2018-09-21T05:50:45.579Z,11.40
2018-09-21T05:53:13.017Z,10.87
2018-09-21T05:55:40.435Z,13.83
2018-09-21T05:58:07.882Z,10.23
2018-09-21T06:00:35.293Z,12.33
2018-09-21T06:03:02.822Z,11.43
2018-09-21T06:05:30.176Z,14.00
2018-09-21T06:07:57.607Z,7.30
2018-09-21T06:10:25.000Z,10.20
2018-09-21T06:12:52.480Z,10.17
2018-09-21T06:15:19.905Z,7.90
2018-09-21T06:17:47.316Z,8.00
2018-09-21T06:20:14.885Z,7.97
2018-09-21T06:22:45.154Z,5.87
2018-09-21T06:25:09.719Z,8.53
2018-09-21T06:27:37.124Z,8.27
2018-09-21T06:30:04.542Z,7.47
2018-09-21T06:32:31.994Z,7.87
2018-09-21T06:34:59.410Z,7.07
2018-09-21T06:37:26.836Z,6.57
2018-09-21T06:39:54.246Z,7.87
2018-09-21T06:42:21.674Z,5.70
2018-09-21T06:44:49.078Z,8.30
2018-09-21T06:47:16.501Z,12.10
2018-09-21T06:49:44.059Z,9.80
2018-09-21T06:52:11.518Z,9.43
2018-09-21T06:54:38.885Z,8.93
2018-09-21T06:57:06.345Z,12.97
2018-09-21T06:59:33.759Z,9.00
2018-09-21T07:04:28.594Z,11.00
2018-09-21T07:06:56.017Z,6.27
2018-09-21T07:09:23.461Z,15.87
2018-09-21T07:11:50.872Z,5.17
2018-09-21T07:14:18.313Z,9.47
2018-09-21T07:16:45.756Z,8.93
2018-09-21T07:19:13.182Z,6.10
2018-09-21T07:21:40.624Z,9.13
2018-09-21T07:24:08.048Z,10.80
2018-09-21T07:26:35.460Z,9.10
2018-09-21T07:29:02.906Z,10.83
2018-09-21T07:31:30.299Z,11.30
2018-09-21T07:33:57.754Z,14.70
2018-09-21T07:36:25.149Z,13.33
2018-09-21T07:38:52.577Z,10.17
2018-09-21T07:41:20.006Z,13.67
2018-09-21T07:43:47.417Z,11.83
2018-09-21T07:46:14.874Z,12.53
2018-09-21T07:48:42.294Z,10.57
2018-09-21T07:51:09.716Z,12.90
2018-09-21T07:53:37.158Z,16.73
2018-09-21T07:56:04.571Z,14.13
2018-09-21T07:58:32.019Z,14.53
2018-09-21T08:00:59.439Z,13.17
2018-09-21T08:03:26.868Z,15.73
2018-09-21T08:05:54.306Z,14.83
2018-09-21T08:08:21.718Z,13.27
2018-09-21T08:10:49.180Z,13.03
2018-09-21T08:13:16.598Z,11.30
2018-09-21T08:15:44.034Z,11.20
2018-09-21T08:18:11.456Z,11.97
2018-09-21T08:20:38.889Z,11.13
2018-09-21T08:23:06.304Z,12.60
2018-09-21T08:25:33.756Z,13.50
2018-09-21T08:28:01.205Z,13.60
2018-09-21T08:30:28.639Z,13.07
2018-09-21T08:32:56.079Z,11.50
2018-09-21T08:35:23.527Z,14.00
2018-09-21T08:37:50.941Z,13.17
2018-09-21T08:40:18.368Z,14.97
2018-09-21T08:42:45.785Z,17.27
2018-09-21T08:45:13.233Z,10.47
2018-09-21T08:47:40.695Z,9.17
2018-09-21T08:50:08.132Z,13.13
2018-09-21T08:52:35.560Z,10.53
2018-09-21T08:55:03.115Z,15.23
2018-09-21T08:57:30.505Z,10.60
2018-09-21T08:59:58.009Z,9.53
2018-09-21T09:05:54.453Z,15.10
2018-09-21T09:08:21.913Z,12.90
2018-09-21T09:10:49.289Z,13.70
2018-09-21T09:13:16.739Z,11.60
2018-09-21T09:15:44.146Z,14.63
2018-09-21T09:18:11.584Z,12.30
2018-09-21T09:20:39.024Z,11.63
2018-09-21T09:23:06.460Z,13.97
2018-09-21T09:25:33.905Z,13.53
2018-09-21T09:28:01.334Z,15.27
2018-09-21T09:30:28.818Z,15.70
2018-09-21T09:32:56.232Z,16.87
2018-09-21T09:35:23.685Z,15.80
2018-09-21T09:37:51.099Z,20.03
2018-09-21T09:40:18.541Z,16.10
2018-09-21T09:42:45.997Z,19.97
2018-09-21T09:45:13.401Z,14.83
2018-09-21T09:47:40.810Z,15.13
2018-09-21T09:50:08.268Z,17.50
2018-09-21T09:52:35.670Z,17.62
2018-09-21T09:55:03.086Z,11.83
2018-09-21T09:57:30.516Z,7.63
2018-09-21T09:59:57.952Z,7.70
2018-09-21T10:02:25.392Z,7.17
2018-09-21T10:04:52.793Z,7.27
2018-09-21T10:07:20.216Z,5.33
2018-09-21T10:09:47.668Z,6.70
2018-09-21T10:12:15.103Z,6.60
2018-09-21T10:14:42.551Z,4.87
2018-09-21T10:17:09.957Z,3.43
2018-09-21T10:19:37.361Z,4.40
2018-09-21T10:22:04.798Z,7.37
2018-09-21T10:24:32.247Z,6.93
2018-09-21T10:26:59.669Z,3.67
2018-09-21T10:29:27.089Z,6.37
2018-09-21T10:31:54.482Z,3.77
2018-09-21T10:34:21.912Z,4.70
2018-09-21T10:36:49.355Z,2.97
2018-09-21T10:39:16.874Z,2.97
2018-09-21T10:41:44.194Z,7.40
2018-09-21T10:44:11.602Z,7.80
2018-09-21T10:46:39.031Z,3.43
2018-09-21T10:49:06.424Z,3.70
2018-09-21T10:51:33.862Z,5.13
2018-09-21T10:54:01.289Z,6.70
2018-09-21T10:56:28.695Z,1.67
2018-09-21T10:58:56.135Z,30.83
2018-09-21T11:01:23.541Z,2.60
2018-09-21T11:03:50.968Z,2.30
2018-09-21T11:06:18.370Z,4.27
2018-09-21T11:08:45.829Z,7.97
2018-09-21T11:11:13.232Z,4.20
2018-09-21T11:13:40.650Z,2.77
2018-09-21T11:16:08.077Z,5.20
2018-09-21T11:18:35.490Z,6.33
2018-09-21T11:21:02.954Z,8.23
2018-09-21T11:23:30.350Z,3.03
2018-09-21T11:25:57.773Z,5.13
2018-09-21T11:28:25.183Z,2.43
2018-09-21T11:30:52.606Z,2.67
2018-09-21T11:33:20.034Z,2.63
2018-09-21T11:35:47.466Z,6.83
2018-09-21T11:38:14.875Z,3.43
2018-09-21T11:40:42.291Z,3.23
2018-09-21T11:43:09.729Z,4.33
2018-09-21T11:45:37.164Z,4.20
2018-09-21T11:48:04.588Z,5.20
2018-09-21T11:50:32.004Z,2.93
2018-09-21T11:52:59.440Z,3.83
2018-09-21T11:55:26.862Z,3.37
2018-09-21T11:57:54.296Z,3.97
2018-09-21T12:00:21.697Z,3.73
2018-09-21T12:02:49.134Z,5.07
2018-09-21T12:05:16.553Z,3.90
2018-09-21T12:07:43.947Z,4.87
2018-09-21T12:10:11.393Z,5.20
2018-09-21T12:12:38.788Z,3.47
2018-09-21T12:15:06.219Z,6.03
2018-09-21T12:17:33.665Z,2.83
2018-09-21T12:20:01.059Z,1.43
2018-09-21T12:22:28.499Z,3.93
2018-09-21T12:24:55.924Z,2.13
2018-09-21T12:27:23.361Z,3.70
2018-09-21T12:29:50.801Z,4.73
2018-09-21T12:32:18.221Z,1.30
2018-09-21T12:34:45.633Z,3.17
2018-09-21T12:37:13.076Z,1.70
2018-09-21T12:39:40.500Z,2.43
2018-09-21T12:42:07.905Z,2.50
2018-09-21T12:44:35.435Z,2.63
2018-09-21T12:47:02.764Z,3.50
2018-09-21T12:49:30.204Z,2.23
2018-09-21T12:51:57.617Z,3.43
2018-09-21T12:54:25.056Z,4.23
2018-09-21T12:56:52.468Z,3.77
2018-09-21T12:59:19.890Z,6.13
2018-09-21T13:01:47.298Z,5.93
2018-09-21T13:04:14.738Z,6.83
2018-09-21T13:06:42.149Z,4.40
2018-09-21T13:09:09.583Z,4.40
2018-09-21T13:11:36.997Z,4.30
2018-09-21T13:14:04.416Z,3.37
2018-09-21T13:16:31.856Z,4.50
2018-09-21T13:18:59.258Z,2.70
2018-09-21T13:21:26.689Z,6.23
2018-09-21T13:23:54.110Z,7.43
2018-09-21T13:26:21.556Z,6.00
2018-09-21T13:28:48.974Z,6.40
2018-09-21T13:31:16.411Z,3.33
2018-09-21T13:33:43.820Z,6.60
2018-09-21T13:36:11.254Z,3.33
2018-09-21T13:38:38.655Z,4.57
2018-09-21T13:41:06.124Z,7.93
2018-09-21T13:43:33.539Z,1.93
2018-09-21T13:46:00.959Z,2.17
2018-09-21T13:48:28.392Z,2.37
2018-09-21T13:50:55.802Z,3.03
2018-09-21T13:53:23.257Z,2.10
2018-09-21T13:55:50.657Z,3.83
2018-09-21T13:58:18.140Z,5.80
2018-09-21T14:00:45.568Z,3.03
2018-09-21T14:03:13.037Z,5.93
2018-09-21T14:05:40.486Z,6.57
2018-09-21T14:08:07.880Z,5.23
2018-09-21T14:10:35.314Z,11.80
2018-09-21T14:13:02.753Z,7.70
2018-09-21T14:15:30.175Z,1.80
2018-09-21T14:17:57.611Z,3.87
2018-09-21T14:20:25.024Z,4.87
2018-09-21T14:22:52.471Z,4.70
2018-09-21T14:25:19.908Z,8.63
2018-09-21T14:27:47.338Z,4.83
2018-09-21T14:30:14.755Z,3.40
2018-09-21T14:32:42.244Z,7.93
2018-09-21T14:35:09.674Z,3.83
2018-09-21T14:37:37.169Z,5.23
2018-09-21T14:40:04.585Z,6.07
2018-09-21T14:42:32.013Z,5.07
2018-09-21T14:44:59.440Z,4.77
2018-09-21T14:47:26.841Z,5.57
2018-09-21T14:49:54.274Z,3.10
2018-09-21T14:52:21.675Z,2.93
2018-09-21T14:54:49.109Z,2.97
2018-09-21T14:57:16.523Z,4.83
2018-09-21T14:59:43.955Z,3.43
2018-09-21T15:02:11.358Z,2.97
2018-09-21T15:04:40.701Z,4.63
2018-09-21T15:07:08.186Z,5.63
2018-09-21T15:09:35.575Z,4.63
2018-09-21T15:12:03.009Z,5.03
2018-09-21T15:14:30.458Z,5.53
2018-09-21T15:16:57.858Z,2.87
2018-09-21T15:19:25.293Z,5.07
2018-09-21T15:21:52.768Z,4.03
2018-09-21T15:24:20.186Z,4.43
2018-09-21T15:26:47.620Z,5.67
2018-09-21T15:29:15.051Z,5.13
2018-09-21T15:31:42.519Z,16.17
2018-09-21T15:34:09.923Z,4.00
2018-09-21T15:36:37.392Z,5.57
2018-09-21T15:39:04.802Z,8.13
2018-09-21T15:41:32.235Z,6.20
2018-09-21T15:43:59.659Z,5.10
2018-09-21T15:46:27.063Z,7.83
2018-09-21T15:48:54.516Z,7.17
2018-09-21T15:51:23.444Z,4.43
2018-09-21T15:53:50.877Z,4.20
2018-09-21T15:56:18.297Z,7.50
2018-09-21T15:58:45.742Z,6.13
2018-09-21T16:01:13.148Z,7.43
2018-09-21T16:03:40.550Z,7.07
2018-09-21T16:06:08.167Z,5.00
2018-09-21T16:08:35.392Z,8.90
2018-09-21T16:11:02.847Z,8.00
2018-09-21T16:13:30.240Z,6.20
2018-09-21T16:15:57.676Z,5.67
2018-09-21T16:18:25.103Z,4.47
2018-09-21T16:20:52.520Z,6.20
2018-09-21T16:23:19.935Z,5.97
2018-09-21T16:25:47.381Z,8.00
2018-09-21T16:28:14.793Z,7.23
2018-09-21T16:30:42.232Z,8.77
2018-09-21T16:33:09.637Z,5.83
2018-09-21T16:35:37.052Z,10.17
2018-09-21T16:38:04.486Z,7.87
2018-09-21T16:40:31.891Z,9.97
2018-09-21T16:42:59.331Z,2.93
2018-09-21T16:45:26.744Z,9.77
2018-09-21T16:47:54.164Z,10.00
2018-09-21T16:50:21.604Z,4.73
2018-09-21T16:52:49.019Z,7.67
2018-09-21T16:55:16.428Z,5.23
2018-09-21T16:57:43.897Z,9.53
2018-09-21T17:00:11.302Z,7.07
2018-09-21T17:06:19.948Z,6.33
2018-09-21T17:08:47.389Z,7.20
2018-09-21T17:11:14.849Z,6.90
2018-09-21T17:13:45.248Z,9.37
2018-09-21T17:16:12.650Z,8.33
2018-09-21T17:18:40.046Z,7.93
2018-09-21T17:21:07.551Z,9.87
2018-09-21T17:23:34.916Z,11.37
2018-09-21T17:26:02.374Z,6.63
2018-09-21T17:28:29.779Z,8.83
2018-09-21T17:30:57.220Z,12.57
2018-09-21T17:33:24.655Z,7.67
2018-09-21T17:35:52.100Z,6.00
2018-09-21T17:38:19.566Z,7.40
2018-09-21T17:40:47.024Z,6.63
2018-09-21T17:43:14.436Z,8.27
2018-09-21T17:45:41.894Z,7.47
2018-09-21T17:48:09.316Z,9.63
2018-09-21T17:50:36.755Z,9.13
2018-09-21T17:53:04.196Z,6.80
2018-09-21T17:55:34.343Z,6.47
2018-09-21T17:58:03.003Z,7.67
2018-09-21T18:00:30.751Z,10.90
2018-09-21T18:02:58.538Z,10.60
2018-09-21T18:05:25.980Z,5.60
2018-09-21T18:07:53.630Z,5.50
2018-09-21T18:10:57.765Z,12.53
2018-09-21T18:13:25.248Z,7.97
2018-09-21T18:15:52.784Z,8.23
2018-09-21T18:18:20.222Z,10.57
2018-09-21T18:20:47.669Z,5.40
2018-09-21T18:23:15.285Z,10.17
2018-09-21T18:25:42.823Z,9.00
2018-09-21T18:28:10.222Z,10.13
2018-09-21T18:30:37.676Z,9.43
2018-09-21T18:33:05.131Z,9.67
2018-09-21T18:35:32.600Z,8.07
2018-09-21T18:38:00.129Z,10.50
2018-09-21T18:40:27.552Z,12.17
2018-09-21T18:42:55.005Z,9.27
2018-09-21T18:45:22.444Z,10.53
2018-09-21T18:47:49.907Z,8.80
2018-09-21T18:50:17.426Z,11.03
2018-09-21T18:52:44.830Z,9.43
2018-09-21T18:55:12.360Z,10.93
2018-09-21T18:57:39.775Z,10.67
2018-09-21T19:00:09.823Z,13.50
2018-09-21T19:02:37.626Z,12.37
2018-09-21T19:05:05.076Z,14.90
2018-09-21T19:07:32.522Z,14.23
2018-09-21T19:09:59.996Z,12.67
2018-09-21T19:12:27.439Z,10.50
2018-09-21T19:14:54.906Z,10.47
2018-09-21T19:17:22.346Z,11.87
2018-09-21T19:19:50.094Z,7.70
2018-09-21T19:22:17.579Z,12.93
2018-09-21T19:24:45.284Z,10.93
2018-09-21T19:27:12.719Z,10.03
2018-09-21T19:29:40.234Z,7.17
2018-09-21T19:32:07.734Z,14.80
2018-09-21T19:34:35.208Z,11.20
2018-09-21T19:37:02.670Z,10.37
2018-09-21T19:39:30.117Z,10.50
2018-09-21T19:41:57.708Z,9.50
2018-09-21T20:01:25.238Z,11.90
2018-09-21T20:03:52.725Z,13.47
2018-09-21T20:06:20.163Z,13.20
2018-09-21T20:08:47.620Z,9.87
2018-09-21T20:11:15.056Z,11.43
2018-09-21T20:13:42.499Z,13.57
2018-09-21T20:16:09.934Z,22.07
2018-09-21T20:18:37.374Z,17.10
2018-09-21T20:21:04.819Z,13.53
2018-09-21T20:23:32.270Z,16.47
2018-09-21T20:25:59.716Z,19.07
2018-09-21T20:28:27.200Z,17.10
2018-09-21T20:30:54.684Z,11.67
2018-09-21T20:33:28.362Z,17.10
2018-09-21T20:35:55.884Z,13.07
2018-09-21T20:38:42.955Z,13.80
2018-09-21T20:41:10.397Z,14.53
2018-09-21T20:43:37.860Z,13.37
2018-09-21T20:46:05.368Z,16.20
2018-09-21T20:48:33.111Z,10.03
2018-09-21T20:51:00.608Z,12.33
2018-09-21T20:53:28.017Z,12.43
2018-09-21T20:55:55.472Z,14.60
2018-09-21T20:58:22.891Z,12.53
2018-09-21T21:00:50.342Z,11.90
2018-09-21T21:03:17.744Z,10.97
2018-09-21T21:05:45.223Z,15.53
2018-09-21T21:08:12.625Z,13.33
2018-09-21T21:10:40.071Z,10.40
2018-09-21T21:13:07.561Z,14.77
2018-09-21T21:15:34.960Z,16.33
2018-09-21T21:18:02.401Z,12.07
2018-09-21T21:20:29.793Z,9.30
2018-09-21T21:22:57.242Z,15.83
2018-09-21T21:25:24.646Z,17.23
2018-09-21T21:27:52.118Z,16.53
2018-09-21T21:30:19.529Z,15.90
2018-09-21T21:32:46.972Z,13.27
2018-09-21T21:35:14.394Z,11.00
2018-09-21T21:37:41.807Z,14.70
2018-09-21T21:40:09.265Z,15.27
2018-09-21T21:42:36.668Z,12.53
2018-09-21T21:45:04.117Z,11.63
2018-09-21T21:47:31.533Z,14.90
2018-09-21T21:49:58.953Z,13.17
2018-09-21T21:52:26.369Z,11.07
2018-09-21T21:54:53.829Z,20.87
2018-09-21T21:57:21.262Z,11.53
2018-09-21T21:59:48.677Z,13.07
2018-09-21T22:02:16.142Z,17.23
2018-09-21T22:04:43.569Z,16.97
2018-09-21T22:07:11.018Z,14.37
2018-09-21T22:09:38.475Z,12.80
2018-09-21T22:12:05.888Z,12.67
2018-09-21T22:14:33.348Z,10.73
2018-09-21T22:17:21.465Z,13.93
2018-09-21T22:19:48.896Z,10.87
2018-09-21T22:22:16.340Z,13.83
2018-09-21T22:24:43.763Z,15.33
2018-09-21T22:27:11.225Z,15.13
2018-09-21T22:29:38.688Z,17.53
2018-09-21T22:32:06.130Z,13.77
2018-09-21T22:34:33.560Z,16.17
2018-09-21T22:37:00.996Z,16.13
2018-09-21T22:39:28.421Z,16.67
2018-09-21T22:41:55.894Z,16.53
2018-09-21T22:44:23.320Z,14.83
2018-09-21T22:46:50.782Z,12.23
2018-09-21T22:49:18.198Z,14.23
2018-09-21T22:51:45.610Z,15.40
2018-09-21T22:54:13.033Z,14.47
2018-09-21T22:56:40.478Z,20.03
2018-09-21T22:59:07.904Z,13.37
2018-09-21T23:01:35.325Z,14.47
2018-09-21T23:04:02.768Z,12.43
2018-09-21T23:06:30.213Z,13.65
2018-09-21T23:08:57.657Z,18.03
2018-09-21T23:11:25.085Z,9.83
2018-09-21T23:13:52.556Z,14.10
2018-09-21T23:16:19.965Z,17.47
2018-09-21T23:18:47.399Z,14.13
2018-09-21T23:21:14.835Z,10.63
2018-09-21T23:23:42.275Z,14.77
2018-09-21T23:26:09.700Z,12.00
2018-09-21T23:28:37.125Z,11.10
2018-09-21T23:31:04.543Z,12.33
2018-09-21T23:33:31.997Z,11.00
2018-09-21T23:35:59.410Z,13.20
2018-09-21T23:38:26.824Z,13.37
2018-09-21T23:40:54.269Z,10.13
2018-09-21T23:43:21.699Z,12.70
2018-09-21T23:45:49.138Z,12.23
2018-09-21T23:48:16.545Z,13.30
2018-09-21T23:50:43.989Z,9.37
2018-09-21T23:53:11.420Z,11.03
2018-09-21T23:55:38.824Z,18.03
2018-09-21T23:58:06.284Z,18.10
